createdAt,value
2022-11-29T00:01:11.002Z,20.97
2022-11-29T00:03:37.672Z,26.40
2022-11-29T00:06:08.553Z,23.00
2022-11-29T00:08:35.446Z,20.93
2022-11-29T00:11:39.566Z,22.50
2022-11-29T00:14:07.873Z,20.83
2022-11-29T00:16:34.779Z,21.80
2022-11-29T00:19:01.709Z,21.53
2022-11-29T00:21:28.369Z,21.17
2022-11-29T00:23:55.395Z,23.00
2022-11-29T00:26:21.958Z,23.70
2022-11-29T00:28:48.496Z,22.27
2022-11-29T00:31:26.540Z,21.70
2022-11-29T00:33:53.273Z,21.97
2022-11-29T00:36:20.100Z,22.07
2022-11-29T00:38:46.640Z,22.17
2022-11-29T00:41:13.448Z,24.27
2022-11-29T00:43:40.467Z,25.90
2022-11-29T00:46:07.861Z,26.97
2022-11-29T00:48:34.848Z,23.83
2022-11-29T00:51:02.980Z,23.27
2022-11-29T00:53:29.827Z,22.70
2022-11-29T00:55:56.425Z,26.47
2022-11-29T00:58:23.296Z,25.60
2022-11-29T01:00:50.147Z,21.10
2022-11-29T01:03:17.219Z,24.80
2022-11-29T01:05:44.412Z,26.67
2022-11-29T01:08:12.645Z,26.90
2022-11-29T01:10:39.128Z,29.90
2022-11-29T01:13:06.092Z,32.60
2022-11-29T01:15:32.847Z,29.30
2022-11-29T01:17:59.491Z,29.63
2022-11-29T01:20:26.280Z,29.60
2022-11-29T01:22:53.308Z,40.27
2022-11-29T01:25:20.247Z,40.53
2022-11-29T01:27:46.846Z,32.70
2022-11-29T01:30:13.414Z,36.43
2022-11-29T01:32:39.926Z,39.63
2022-11-29T01:35:07.293Z,32.77
2022-11-29T01:37:33.785Z,32.17
2022-11-29T01:40:00.506Z,39.40
2022-11-29T01:42:27.091Z,40.60
2022-11-29T01:45:02.895Z,38.07
2022-11-29T01:47:29.965Z,27.90
2022-11-29T01:49:56.584Z,35.40
2022-11-29T01:52:26.377Z,29.10
2022-11-29T01:54:57.125Z,31.63
2022-11-29T01:57:24.051Z,27.00
2022-11-29T01:59:54.266Z,32.33
2022-11-29T02:02:31.216Z,34.80
2022-11-29T02:04:58.542Z,26.80
2022-11-29T02:07:25.287Z,29.33
2022-11-29T02:09:51.834Z,29.70
2022-11-29T02:12:42.935Z,20.67
2022-11-29T02:15:27.153Z,25.80
2022-11-29T02:18:04.982Z,27.20
2022-11-29T02:20:40.520Z,28.03
2022-11-29T02:23:39.467Z,26.20
2022-11-29T02:26:18.147Z,21.67
2022-11-29T02:29:06.466Z,27.50
2022-11-29T02:31:59.190Z,27.83
2022-11-29T02:34:31.772Z,20.70
2022-11-29T02:37:20.740Z,23.73
2022-11-29T02:40:14.818Z,33.07
2022-11-29T02:42:56.773Z,22.97
2022-11-29T02:45:42.094Z,28.67
2022-11-29T02:48:17.591Z,30.00
2022-11-29T02:50:46.736Z,27.63
2022-11-29T02:53:31.048Z,23.80
2022-11-29T02:56:20.785Z,28.13
2022-11-29T02:58:56.409Z,27.23
2022-11-29T03:01:58.995Z,25.83
2022-11-29T03:04:26.152Z,25.03
2022-11-29T03:07:03.937Z,25.60
2022-11-29T03:09:42.766Z,25.23
2022-11-29T03:12:40.700Z,26.00
2022-11-29T03:15:28.953Z,21.53
2022-11-29T03:18:16.842Z,21.53
2022-11-29T03:20:59.948Z,22.10
2022-11-29T03:23:32.972Z,22.40
2022-11-29T03:26:07.945Z,19.70
2022-11-29T03:28:39.980Z,20.27
2022-11-29T03:31:21.677Z,17.83
2022-11-29T03:34:29.502Z,19.30
2022-11-29T03:37:02.697Z,16.57
2022-11-29T03:39:41.811Z,25.83
2022-11-29T03:42:12.660Z,22.90
2022-11-29T03:45:05.412Z,20.73
2022-11-29T03:47:40.868Z,26.60
2022-11-29T03:50:20.629Z,21.93
2022-11-29T03:53:03.465Z,24.73
2022-11-29T03:55:33.148Z,25.37
2022-11-29T03:58:14.492Z,27.67
2022-11-29T04:00:49.994Z,25.03
2022-11-29T04:03:38.296Z,33.20
2022-11-29T04:06:14.938Z,27.67
2022-11-29T04:08:53.965Z,25.23
2022-11-29T04:11:29.574Z,28.03
2022-11-29T04:14:15.883Z,30.93
2022-11-29T04:16:48.381Z,29.33
2022-11-29T04:19:33.039Z,27.90
2022-11-29T04:22:26.300Z,33.53
2022-11-29T04:25:10.819Z,35.87
2022-11-29T04:27:43.625Z,32.17
2022-11-29T04:30:22.911Z,53.33
2022-11-29T04:32:55.619Z,45.47
2022-11-29T04:35:22.279Z,53.77
2022-11-29T04:37:58.100Z,53.60
2022-11-29T04:40:33.802Z,39.90
2022-11-29T04:43:34.913Z,42.00
2022-11-29T04:46:13.449Z,50.50
2022-11-29T04:48:47.254Z,48.93
2022-11-29T04:51:22.692Z,45.67
2022-11-29T04:54:22.830Z,53.67
2022-11-29T04:56:54.971Z,46.97
2022-11-29T04:59:39.355Z,42.37
2022-11-29T05:02:36.685Z,47.63
2022-11-29T05:05:17.971Z,54.07
2022-11-29T05:07:52.978Z,48.77
2022-11-29T05:10:58.828Z,43.77
2022-11-29T05:14:13.374Z,47.57
2022-11-29T05:16:53.848Z,40.17
2022-11-29T05:19:49.568Z,41.47
2022-11-29T05:22:31.016Z,51.67
2022-11-29T05:25:02.267Z,44.73
2022-11-29T05:27:47.734Z,42.10
2022-11-29T05:30:22.806Z,40.90
2022-11-29T05:32:57.842Z,46.37
2022-11-29T05:35:29.434Z,49.00
2022-11-29T05:38:24.218Z,44.27
2022-11-29T05:41:03.552Z,55.27
2022-11-29T05:43:45.612Z,56.43
2022-11-29T05:46:19.326Z,58.47
2022-11-29T05:49:18.676Z,70.27
2022-11-29T05:51:57.282Z,57.20
2022-11-29T05:54:26.713Z,53.67
2022-11-29T05:57:04.106Z,51.87
2022-11-29T05:59:31.333Z,78.00
2022-11-29T06:02:11.417Z,74.00
2022-11-29T06:05:09.067Z,56.50
2022-11-29T06:08:01.950Z,66.13
2022-11-29T06:10:32.944Z,62.00
2022-11-29T06:13:19.452Z,59.80
2022-11-29T06:16:08.801Z,61.03
2022-11-29T06:18:57.256Z,53.40
2022-11-29T06:21:39.097Z,69.30
2022-11-29T06:24:13.675Z,55.73
2022-11-29T06:27:06.463Z,54.10
2022-11-29T06:29:56.739Z,51.87
2022-11-29T06:32:29.428Z,49.83
2022-11-29T06:35:07.882Z,49.20
2022-11-29T06:37:43.644Z,40.83
2022-11-29T06:40:12.201Z,40.80
2022-11-29T06:42:38.750Z,42.03
2022-11-29T06:45:06.186Z,36.97
2022-11-29T06:47:38.886Z,34.53
2022-11-29T06:50:24.001Z,37.70
2022-11-29T06:52:58.358Z,37.20
2022-11-29T06:55:34.482Z,32.93
2022-11-29T06:58:21.740Z,32.50
2022-11-29T07:01:11.946Z,33.37
2022-11-29T07:04:02.433Z,32.47
2022-11-29T07:06:29.796Z,32.70
2022-11-29T07:09:00.164Z,38.30
2022-11-29T07:11:27.416Z,36.37
2022-11-29T07:13:54.528Z,32.20
2022-11-29T07:16:57.597Z,40.93
2022-11-29T07:19:41.631Z,39.83
2022-11-29T07:22:36.260Z,33.17
2022-11-29T07:25:08.940Z,42.20
2022-11-29T07:27:41.788Z,35.33
2022-11-29T07:30:21.344Z,34.93
2022-11-29T07:33:06.788Z,36.67
2022-11-29T07:35:51.505Z,41.10
2022-11-29T07:38:41.617Z,42.90
2022-11-29T07:41:18.627Z,45.23
2022-11-29T07:43:50.279Z,36.90
2022-11-29T07:46:16.763Z,39.73
2022-11-29T07:48:43.626Z,37.23
2022-11-29T07:51:10.580Z,39.30
2022-11-29T07:53:43.007Z,46.60
2022-11-29T07:56:09.831Z,32.77
2022-11-29T07:58:36.387Z,40.73
2022-11-29T08:01:03.417Z,36.67
2022-11-29T08:03:30.048Z,39.00
2022-11-29T08:05:56.520Z,38.73
2022-11-29T08:08:23.029Z,50.43
2022-11-29T08:10:49.502Z,41.13
2022-11-29T08:13:16.020Z,36.70
2022-11-29T08:15:45.848Z,42.77
2022-11-29T08:18:12.811Z,41.97
2022-11-29T08:20:41.577Z,43.73
2022-11-29T08:23:11.192Z,34.90
2022-11-29T08:25:37.722Z,32.10
2022-11-29T08:28:05.090Z,31.10
2022-11-29T08:30:31.942Z,43.37
2022-11-29T08:32:58.475Z,48.03
2022-11-29T08:35:24.897Z,42.93
2022-11-29T08:37:51.772Z,36.63
2022-11-29T08:40:18.507Z,38.60
2022-11-29T08:42:45.046Z,36.70
2022-11-29T08:45:11.738Z,38.43
2022-11-29T08:47:39.166Z,39.60
2022-11-29T08:50:12.410Z,34.50
2022-11-29T08:53:01.954Z,40.33
2022-11-29T08:55:33.275Z,37.97
2022-11-29T08:58:05.396Z,39.80
2022-11-29T09:00:32.599Z,41.60
2022-11-29T09:03:19.192Z,33.00
2022-11-29T09:05:45.804Z,46.53
2022-11-29T09:08:12.279Z,34.67
2022-11-29T09:10:42.432Z,39.73
2022-11-29T09:13:10.167Z,39.53
2022-11-29T09:15:38.009Z,39.97
2022-11-29T09:18:05.769Z,41.80
2022-11-29T09:20:33.499Z,35.70
2022-11-29T09:23:00.605Z,34.33
2022-11-29T09:25:27.941Z,40.20
2022-11-29T09:27:57.870Z,35.50
2022-11-29T09:30:24.482Z,44.83
2022-11-29T09:32:51.180Z,31.70
2022-11-29T09:35:18.233Z,36.10
2022-11-29T09:37:44.735Z,43.13
2022-11-29T09:40:21.530Z,37.80
2022-11-29T09:42:57.848Z,35.33
2022-11-29T09:45:30.562Z,30.80
2022-11-29T09:48:20.984Z,39.00
2022-11-29T09:50:56.524Z,28.47
2022-11-29T09:53:44.800Z,31.60
2022-11-29T09:56:17.936Z,42.00
2022-11-29T09:58:53.123Z,39.50
2022-11-29T10:01:24.977Z,35.57
2022-11-29T10:03:54.695Z,36.87
2022-11-29T10:06:27.013Z,45.30
2022-11-29T10:09:04.568Z,38.00
2022-11-29T10:11:42.302Z,46.10
2022-11-29T10:14:17.827Z,39.27
2022-11-29T10:16:44.407Z,30.87
2022-11-29T10:19:18.472Z,35.03
2022-11-29T10:21:57.287Z,37.03
2022-11-29T10:24:25.125Z,37.60
2022-11-29T10:26:51.559Z,36.70
2022-11-29T10:29:18.031Z,38.87
2022-11-29T10:31:49.263Z,29.70
2022-11-29T10:34:18.299Z,33.13
2022-11-29T10:36:47.910Z,29.40
2022-11-29T10:39:21.187Z,33.87
2022-11-29T10:41:53.625Z,30.13
2022-11-29T10:44:21.043Z,29.07
2022-11-29T10:46:47.763Z,28.13
2022-11-29T10:49:17.124Z,36.13
2022-11-29T10:51:44.027Z,41.50
2022-11-29T10:54:28.854Z,30.70
2022-11-29T10:56:57.187Z,30.23
2022-11-29T10:59:25.889Z,39.53
2022-11-29T11:01:52.779Z,29.60
2022-11-29T11:04:28.883Z,31.23
2022-11-29T11:07:03.431Z,37.70
2022-11-29T11:09:35.758Z,38.57
2022-11-29T11:12:11.621Z,35.23
2022-11-29T11:14:38.715Z,36.03
2022-11-29T11:17:30.067Z,43.20
2022-11-29T11:20:18.830Z,35.50
2022-11-29T11:22:59.795Z,30.57
2022-11-29T11:25:37.489Z,34.77
2022-11-29T11:28:18.126Z,33.50
2022-11-29T11:30:50.713Z,42.77
2022-11-29T11:33:20.278Z,38.63
2022-11-29T11:36:05.744Z,32.03
2022-11-29T11:38:33.624Z,38.57
2022-11-29T11:41:22.704Z,43.80
2022-11-29T11:43:51.673Z,36.87
2022-11-29T11:46:18.426Z,30.80
2022-11-29T11:48:46.925Z,33.27
2022-11-29T11:51:25.798Z,30.23
2022-11-29T11:53:55.493Z,33.80
2022-11-29T11:56:23.585Z,28.90
2022-11-29T11:58:52.645Z,32.80
2022-11-29T12:01:27.427Z,30.90
2022-11-29T12:04:12.226Z,25.00
2022-11-29T12:06:54.912Z,33.70
2022-11-29T12:09:53.063Z,34.07
2022-11-29T12:12:39.117Z,35.97
2022-11-29T12:15:17.836Z,28.57
2022-11-29T12:17:58.367Z,31.40
2022-11-29T12:20:32.979Z,34.67
2022-11-29T12:23:09.344Z,26.87
2022-11-29T12:25:45.065Z,34.83
2022-11-29T12:28:18.608Z,33.10
2022-11-29T12:31:02.713Z,41.20
2022-11-29T12:33:38.282Z,28.90
2022-11-29T12:36:21.871Z,50.30
2022-11-29T12:39:06.606Z,38.57
2022-11-29T12:41:35.884Z,32.83
2022-11-29T12:44:11.463Z,33.43
2022-11-29T12:46:38.662Z,32.13
2022-11-29T12:49:31.997Z,48.80
2022-11-29T12:52:16.413Z,35.17
2022-11-29T12:54:49.055Z,46.67
2022-11-29T12:57:33.988Z,43.90
2022-11-29T13:00:13.498Z,46.57
2022-11-29T13:03:25.791Z,38.50
2022-11-29T13:06:14.273Z,46.53
2022-11-29T13:09:08.183Z,44.23
2022-11-29T13:11:36.669Z,45.43
2022-11-29T13:14:40.821Z,51.07
2022-11-29T13:17:06.237Z,49.83
2022-11-29T13:20:02.214Z,46.23
2022-11-29T13:22:46.465Z,44.23
2022-11-29T13:25:19.578Z,55.80
2022-11-29T13:27:56.826Z,46.97
2022-11-29T13:30:23.997Z,48.53
2022-11-29T13:32:58.519Z,51.20
2022-11-29T13:35:50.308Z,53.60
2022-11-29T13:38:27.111Z,45.23
2022-11-29T13:41:08.408Z,50.37
2022-11-29T13:44:13.324Z,54.23
2022-11-29T13:46:49.463Z,47.17
2022-11-29T13:49:43.099Z,53.10
2022-11-29T13:52:41.797Z,63.70
2022-11-29T13:55:11.588Z,58.30
2022-11-29T13:58:14.352Z,50.60
2022-11-29T14:00:42.568Z,62.50
2022-11-29T14:03:24.481Z,60.13
2022-11-29T14:05:53.417Z,50.40
2022-11-29T14:08:24.481Z,55.40
2022-11-29T14:10:53.343Z,61.03
2022-11-29T14:13:22.745Z,55.80
2022-11-29T14:15:58.683Z,47.57
2022-11-29T14:18:38.053Z,54.87
2022-11-29T14:21:05.016Z,56.97
2022-11-29T14:23:35.688Z,56.33
2022-11-29T14:26:02.117Z,56.20
2022-11-29T14:28:32.492Z,52.43
2022-11-29T14:31:04.326Z,50.70
2022-11-29T14:33:43.089Z,73.90
2022-11-29T14:36:17.424Z,55.00
2022-11-29T14:38:54.365Z,56.90
2022-11-29T14:41:39.980Z,54.80
2022-11-29T14:44:16.034Z,54.70
2022-11-29T14:46:43.643Z,50.70
2022-11-29T14:49:21.822Z,62.03
2022-11-29T14:52:07.128Z,56.80
2022-11-29T14:54:35.183Z,68.40
2022-11-29T14:57:39.363Z,67.97
2022-11-29T15:00:11.154Z,61.50
2022-11-29T15:02:49.786Z,60.47
2022-11-29T15:05:18.766Z,68.10
2022-11-29T15:08:16.363Z,69.90
2022-11-29T15:10:54.588Z,69.10
2022-11-29T15:13:29.295Z,70.33
2022-11-29T15:16:21.877Z,75.87
2022-11-29T15:19:15.782Z,71.67
2022-11-29T15:21:54.651Z,63.97
2022-11-29T15:24:28.031Z,62.70
2022-11-29T15:26:59.831Z,66.83
2022-11-29T15:29:30.597Z,79.57
2022-11-29T15:32:04.104Z,59.67
2022-11-29T15:34:34.634Z,81.40
2022-11-29T15:37:01.360Z,73.27
2022-11-29T15:39:36.116Z,79.03
2022-11-29T15:42:08.212Z,78.83
2022-11-29T15:44:34.817Z,71.30
2022-11-29T15:47:21.663Z,64.93
2022-11-29T15:49:48.905Z,59.50
2022-11-29T15:52:36.567Z,66.60
2022-11-29T15:55:06.169Z,68.50
2022-11-29T15:57:35.749Z,68.50
2022-11-29T16:00:05.654Z,55.77
2022-11-29T16:02:34.801Z,65.67
2022-11-29T16:05:30.640Z,68.53
2022-11-29T16:08:03.157Z,66.43
2022-11-29T16:10:36.050Z,84.10
2022-11-29T16:13:22.300Z,68.33
2022-11-29T16:15:48.833Z,68.90
2022-11-29T16:18:20.896Z,78.40
2022-11-29T16:21:01.183Z,62.80
2022-11-29T16:23:43.905Z,65.67
2022-11-29T16:26:30.608Z,57.93
2022-11-29T16:29:00.089Z,82.20
2022-11-29T16:31:36.720Z,64.47
2022-11-29T16:34:17.869Z,65.10
2022-11-29T16:36:44.417Z,68.93
2022-11-29T16:39:22.776Z,57.20
2022-11-29T16:42:26.232Z,73.27
2022-11-29T16:45:04.600Z,64.63
2022-11-29T16:47:46.483Z,65.27
2022-11-29T16:50:16.358Z,65.47
2022-11-29T16:52:42.941Z,63.20
2022-11-29T16:55:09.678Z,76.07
2022-11-29T16:57:36.426Z,71.70
2022-11-29T17:00:29.123Z,79.47
2022-11-29T17:02:55.801Z,62.23
2022-11-29T17:05:22.349Z,75.17
2022-11-29T17:07:49.395Z,64.80
2022-11-29T17:10:18.706Z,68.93
2022-11-29T17:12:48.307Z,73.47
2022-11-29T17:15:15.111Z,64.00
2022-11-29T17:17:43.420Z,54.57
2022-11-29T17:20:11.712Z,70.90
2022-11-29T17:22:38.294Z,62.13
2022-11-29T17:25:05.193Z,66.70
2022-11-29T17:27:32.604Z,54.13
2022-11-29T17:29:59.104Z,56.20
2022-11-29T17:32:26.969Z,63.43
2022-11-29T17:34:53.950Z,63.00
2022-11-29T17:37:20.490Z,57.43
2022-11-29T17:39:48.967Z,57.03
2022-11-29T17:42:15.517Z,53.60
2022-11-29T17:44:42.168Z,61.63
2022-11-29T17:47:08.630Z,65.97
2022-11-29T17:49:35.115Z,54.50
2022-11-29T17:52:01.716Z,54.83
2022-11-29T17:54:28.283Z,75.67
2022-11-29T17:56:55.153Z,62.43
2022-11-29T17:59:21.763Z,55.40
2022-11-29T18:01:48.593Z,60.27
2022-11-29T18:04:15.355Z,61.43
2022-11-29T18:06:42.174Z,59.73
2022-11-29T18:09:10.033Z,54.83
2022-11-29T18:11:47.660Z,52.37
2022-11-29T18:14:21.025Z,55.23
2022-11-29T18:16:48.247Z,52.97
2022-11-29T18:19:19.185Z,65.60
2022-11-29T18:21:45.903Z,69.30
2022-11-29T18:24:12.497Z,52.67
2022-11-29T18:26:39.771Z,68.43
2022-11-29T18:29:06.812Z,54.90
2022-11-29T18:31:35.568Z,47.50
2022-11-29T18:34:03.242Z,47.77
2022-11-29T18:36:31.730Z,50.07
2022-11-29T18:39:00.369Z,48.43
2022-11-29T18:41:28.474Z,40.33
2022-11-29T18:44:05.993Z,52.50
2022-11-29T18:46:32.973Z,43.20
2022-11-29T18:49:00.949Z,50.83
2022-11-29T18:51:29.004Z,49.60
2022-11-29T18:53:55.989Z,56.27
2022-11-29T18:56:24.227Z,57.97
2022-11-29T18:58:58.513Z,49.97
2022-11-29T19:01:30.767Z,46.83
2022-11-29T19:03:59.294Z,43.47
2022-11-29T19:06:38.652Z,51.67
2022-11-29T19:09:06.324Z,47.33
2022-11-29T19:11:34.248Z,49.13
2022-11-29T19:14:03.954Z,49.37
2022-11-29T19:16:32.623Z,43.53
2022-11-29T19:19:00.226Z,55.63
2022-11-29T19:21:28.222Z,59.70
2022-11-29T19:23:56.862Z,39.40
2022-11-29T19:26:26.026Z,44.10
2022-11-29T19:28:53.112Z,47.13
2022-11-29T19:31:22.567Z,47.83
2022-11-29T19:33:49.306Z,56.10
2022-11-29T19:36:18.757Z,47.17
2022-11-29T19:38:50.246Z,51.10
2022-11-29T19:41:26.284Z,48.43
2022-11-29T19:43:53.697Z,50.80
2022-11-29T19:46:23.053Z,60.33
2022-11-29T19:48:51.977Z,51.60
2022-11-29T19:51:19.026Z,53.07
2022-11-29T19:53:46.911Z,47.67
2022-11-29T19:56:16.903Z,44.57
2022-11-29T19:58:44.167Z,47.37
2022-11-29T20:01:13.154Z,39.30
2022-11-29T20:03:40.455Z,38.97
2022-11-29T20:06:08.268Z,41.97
2022-11-29T20:08:35.792Z,53.73
2022-11-29T20:11:12.481Z,46.70
2022-11-29T20:13:40.747Z,42.40
2022-11-29T20:16:12.854Z,47.90
2022-11-29T20:18:45.700Z,41.33
2022-11-29T20:21:23.715Z,61.00
2022-11-29T20:23:55.570Z,48.03
2022-11-29T20:26:23.122Z,54.83
2022-11-29T20:28:49.606Z,51.93
2022-11-29T20:31:18.770Z,55.27
2022-11-29T20:33:46.290Z,51.73
2022-11-29T20:36:18.680Z,49.83
2022-11-29T20:38:51.331Z,52.93
2022-11-29T20:41:40.221Z,48.17
2022-11-29T20:44:07.592Z,60.67
2022-11-29T20:46:34.380Z,65.80
2022-11-29T20:49:06.534Z,61.93
2022-11-29T20:52:02.763Z,58.40
2022-11-29T20:54:29.575Z,50.20
2022-11-29T20:56:56.057Z,70.73
2022-11-29T20:59:22.566Z,56.27
2022-11-29T21:01:49.093Z,65.73
2022-11-29T21:04:20.183Z,60.70
2022-11-29T21:06:49.548Z,59.03
2022-11-29T21:09:16.292Z,63.50
2022-11-29T21:11:43.223Z,59.63
2022-11-29T21:14:09.935Z,68.17
2022-11-29T21:16:36.638Z,75.43
2022-11-29T21:19:03.742Z,69.07
2022-11-29T21:21:56.280Z,66.30
2022-11-29T21:24:34.456Z,72.03
2022-11-29T21:27:01.582Z,68.17
2022-11-29T21:29:28.279Z,73.60
2022-11-29T21:31:55.285Z,69.27
2022-11-29T21:34:21.987Z,61.80
2022-11-29T21:36:53.078Z,72.13
2022-11-29T21:39:19.553Z,69.43
2022-11-29T21:41:46.279Z,71.10
2022-11-29T21:44:12.772Z,82.67
2022-11-29T21:46:39.512Z,72.33
2022-11-29T21:49:06.110Z,72.57
2022-11-29T21:51:32.731Z,79.13
2022-11-29T21:53:59.300Z,73.13
2022-11-29T21:56:25.826Z,71.13
2022-11-29T21:58:52.711Z,76.30
2022-11-29T22:01:20.413Z,80.47
2022-11-29T22:03:47.463Z,76.20
2022-11-29T22:06:18.515Z,76.03
2022-11-29T22:08:45.031Z,70.13
2022-11-29T22:11:31.024Z,75.40
2022-11-29T22:14:14.006Z,66.73
2022-11-29T22:16:47.609Z,64.10
2022-11-29T22:19:16.685Z,72.20
2022-11-29T22:21:44.819Z,64.57
2022-11-29T22:24:13.156Z,59.97
2022-11-29T22:26:40.030Z,67.93
2022-11-29T22:29:06.820Z,68.70
2022-11-29T22:31:33.505Z,68.27
2022-11-29T22:34:00.333Z,67.50
2022-11-29T22:36:26.942Z,73.17
2022-11-29T22:38:53.664Z,72.77
2022-11-29T22:41:20.763Z,72.20
2022-11-29T22:43:47.288Z,80.10
2022-11-29T22:46:16.816Z,76.73
2022-11-29T22:48:44.450Z,78.27
2022-11-29T22:51:16.033Z,70.87
2022-11-29T22:53:47.813Z,77.20
2022-11-29T22:56:14.709Z,64.50
2022-11-29T22:58:41.223Z,67.57
2022-11-29T23:01:14.181Z,66.87
2022-11-29T23:03:48.027Z,63.87
2022-11-29T23:06:16.852Z,68.70
2022-11-29T23:08:44.563Z,64.30
2022-11-29T23:11:13.704Z,59.33
2022-11-29T23:13:41.340Z,60.00
2022-11-29T23:16:10.136Z,62.00
2022-11-29T23:18:37.104Z,58.73
2022-11-29T23:21:06.360Z,59.60
2022-11-29T23:23:33.387Z,64.87
2022-11-29T23:26:00.493Z,73.33
2022-11-29T23:28:28.322Z,61.87
2022-11-29T23:30:54.988Z,65.70
2022-11-29T23:33:23.263Z,62.00
2022-11-29T23:35:50.853Z,67.13
2022-11-29T23:38:18.014Z,76.50
2022-11-29T23:40:44.718Z,69.83
2022-11-29T23:43:11.237Z,66.10
2022-11-29T23:45:40.819Z,66.10
2022-11-29T23:48:07.626Z,63.50
2022-11-29T23:50:34.149Z,60.77
2022-11-29T23:53:00.678Z,60.77
2022-11-29T23:55:27.565Z,65.53
2022-11-29T23:57:54.033Z,62.40
